Kinross, Iowa
Current Conditions -  °F | °C
As of 3:35 AM on Monday 24 Nov 2014 (Local Time) from KOOA Reporting Station
Overcast Overcast  
Wind Chill: 19°   Ceiling: 1400
Heat Index: 32°   Visibility: 10mi
Dew Point: 30°   Wind: 26mph
Humidity: 92%   Direction: 300°WNW
Pressure: 29.35"   Gusts: 32mph
Location:  41.4707°N, 92.1243°W
Report Text: KOOA 240935Z AUTO 30023G28KT 10SM OVC014 00/M01 A2935 RMK AO2 T00011011
Loading
Personal Weather Stations






























Interactive Weather Map New forecast layout! Learn more

10-Day Weather Forecast

Advertisements
Track Severe Weather on mobile